Dundee, Texas
Current Conditions -  °F | °C
As of 4:55 AM on Wednesday 26 Nov 2014 (Local Time) from KCWC Reporting Station
Clear Clear  
Wind Chill: 40°   Ceiling: Unl
Heat Index: 40°   Visibility: 10mi
Dew Point: 28°   Wind: 3mph
Humidity: 63%   Direction: 260°W
Pressure: 30.03"   Gusts: NA
Location:  33.6107°N, 98.6955°W
Report Text: KCWC 261055Z AUTO 26003KT 10SM CLR 05/M02 A3003 RMK AO2 T00451021
Loading
Personal Weather Stations






























Interactive Weather Map New forecast layout! Learn more

10-Day Weather Forecast

Advertisements
Track Severe Weather on mobile